Absarokee, MT (59001)

4:29 AM MST on December 08, 2019 (GMT -0700)
Circle T Subdivision | | Change Station
Active Advisory: Winter Weather Advisory

Elev 4039 ft 45.53 °N, 109.45 °W | Updated 30 seconds ago

Overcast
Overcast
35.2 °F
Feels Like 35 °F
N
0
Wind Variable Wind from NW
Gusts 1.3 mph

Today
High -- | Low -- °F
--% Chance of Precip.
Yesterday
High -- | Low -- °F
Precip. -- in
Pressure 29.65 in
Visibility 10.0 miles
Clouds Few 5500 ft
Scattered Clouds 7000 ft
Overcast 10000 ft
Windchill 35 °F
Dew Point 29 °F
Humidity 78%
Rainfall 0.00 in
Snow Depth Not available.
7:44 AM 4:34 PM
Waxing Gibbous, 86% visible
METAR KBIL 081053Z 25015KT 10SM FEW055 SCT070 OVC100 04/M03 A2965 RMK AO2 SLP040 T00441033
Pressure 29.65 in
Visibility 10.0 miles
Clouds Few 5500 ft
Scattered Clouds 7000 ft
Overcast 10000 ft
Windchill 35 °F
Dew Point 29 °F
Humidity 78%
Rainfall 0.00 in
Snow Depth Not available.
7:44 AM 4:34 PM
Waxing Gibbous, 86% visible
METAR KBIL 081053Z 25015KT 10SM FEW055 SCT070 OVC100 04/M03 A2965 RMK AO2 SLP040 T00441033

Get Your Daily Forecast Email!

Thanks for signing up!

Be on the lookout for a verification email in your inbox.

You'll start receiving severe weather alerts in your inbox..

×

10-Day Weather Forecast

Almanac

Astronomy

Dec. 08, 2019 Rise Set
Actual Time
Civil Twilight
Nautical Twilight
Astronomical Twilight
Moon
Length of Visible Light
Length of Day
Tomorrow will be .
, % of the Moon is Illuminated

Today's Extremes

State Highs State Lows

Community

WunderPhotos

Category 6

Welcome to Category 6. This is the collective home for Weather Underground's featured writeups by Dr. Jeff Masters (right), Bob Henson (left), Chris Burt, and other regular contributors.

Nearby

Air Quality

  Air Quality AQ Index Pollutant
Not available.

Snow Depth

Station Depth Elevation

Earthquake Activity

City Distance Mag. Time & Date
Minimum magnitude displayed is 2.5.

Coastal Water Temperatures

Place Temperature

Stations

Nearby Weather Stations

Station Location Temp. Windchill Dew Point Humidity Wind Precip. Elev Updated Type
                   

Watches & Warnings

Winter Weather Advisory
Issued: 2:38 AM MST Dec. 8, 2019 – National Weather Service

... Winter Weather Advisory remains in effect until 8 PM MST this
evening...

* what... mixed wintry precipitation expected this morning, turning
to all snow through the afternoon. Total snow accumulations up
to two inches, and a possible light glaze of ice accumulation.

* Where... portions of central, south central and southeast
Montana.

* When... from 5 am to 8 PM MST Sunday.

* Impacts... poor visibility and travel difficulties. Any wet roads
will suddenly freeze around sunset this afternoon, creating
very slick travel conditions.


Precautionary/preparedness actions...

Slow down and use caution while traveling.

For the latest Road conditions, call 5 1 1.

Additional graphics for this hazard can be found at
http://www.Weather.Gov/Billings